createdAt,value
2019-02-28T00:00:10.912Z,9.20
2019-02-28T00:02:53.862Z,9.20
2019-02-28T00:05:23.025Z,9.20
2019-02-28T00:08:01.206Z,9.20
2019-02-28T00:10:42.789Z,9.10
2019-02-28T00:13:21.738Z,9.10
2019-02-28T00:15:51.601Z,9.10
2019-02-28T00:18:32.063Z,9.10
2019-02-28T00:21:05.777Z,9.10
2019-02-28T00:23:39.000Z,9.10
2019-02-28T00:26:12.370Z,9.10
2019-02-28T00:28:49.028Z,9.10
2019-02-28T00:31:22.304Z,9.10
2019-02-28T00:34:11.658Z,9.10
2019-02-28T00:36:38.780Z,9.10
2019-02-28T00:39:12.766Z,9.10
2019-02-28T00:41:47.198Z,9.00
2019-02-28T00:44:24.784Z,9.00
2019-02-28T00:46:59.537Z,9.00
2019-02-28T00:49:33.812Z,8.90
2019-02-28T00:52:10.167Z,8.90
2019-02-28T00:54:58.171Z,8.80
2019-02-28T00:57:31.671Z,8.80
2019-02-28T01:00:05.480Z,8.80
2019-02-28T01:02:52.032Z,8.80
2019-02-28T01:05:28.278Z,8.80
2019-02-28T01:08:10.529Z,8.80
2019-02-28T01:10:48.363Z,8.70
2019-02-28T01:13:28.196Z,8.70
2019-02-28T01:16:05.456Z,8.70
2019-02-28T01:18:41.985Z,8.70
2019-02-28T01:21:14.306Z,8.70
2019-02-28T01:23:56.696Z,8.70
2019-02-28T01:26:36.077Z,8.60
2019-02-28T01:29:06.915Z,8.60
2019-02-28T01:31:46.183Z,8.60
2019-02-28T01:34:29.148Z,8.60
2019-02-28T01:37:10.577Z,8.70
2019-02-28T01:39:44.153Z,8.70
2019-02-28T01:42:41.172Z,8.60
2019-02-28T01:45:12.081Z,8.60
2019-02-28T01:47:45.180Z,8.70
2019-02-28T01:50:16.248Z,8.60
2019-02-28T01:52:56.261Z,8.60
2019-02-28T01:55:29.380Z,8.60
2019-02-28T01:58:16.580Z,8.70
2019-02-28T02:00:48.523Z,8.70
2019-02-28T02:03:30.559Z,8.60
2019-02-28T02:06:05.443Z,8.60
2019-02-28T02:08:38.461Z,8.60
2019-02-28T02:11:11.157Z,8.60
2019-02-28T02:13:48.385Z,8.60
2019-02-28T02:16:27.638Z,8.60
2019-02-28T02:19:00.487Z,8.60
2019-02-28T02:21:31.530Z,8.60
2019-02-28T02:24:03.465Z,8.60
2019-02-28T02:26:34.055Z,8.60
2019-02-28T02:29:07.216Z,8.60
2019-02-28T02:31:40.365Z,8.60
2019-02-28T02:34:10.829Z,8.60
2019-02-28T02:36:41.314Z,8.60
2019-02-28T02:39:15.957Z,8.60
2019-02-28T02:41:47.465Z,8.60
2019-02-28T02:44:17.918Z,8.60
2019-02-28T02:46:52.166Z,8.60
2019-02-28T02:49:20.869Z,8.60
2019-02-28T02:51:51.275Z,8.70
2019-02-28T02:54:21.820Z,8.70
2019-02-28T02:56:52.741Z,8.70
2019-02-28T02:59:23.525Z,8.70
2019-02-28T03:01:57.309Z,8.80
2019-02-28T03:04:27.824Z,8.80
2019-02-28T03:06:58.600Z,8.80
2019-02-28T03:09:29.602Z,8.80
2019-02-28T03:12:02.121Z,8.80
2019-02-28T03:14:33.654Z,8.80
2019-02-28T03:17:09.709Z,8.80
2019-02-28T03:19:36.328Z,8.80
2019-02-28T03:22:06.721Z,8.80
2019-02-28T03:24:37.794Z,8.70
2019-02-28T03:27:08.200Z,8.70
2019-02-28T03:29:43.421Z,8.70
2019-02-28T03:32:12.064Z,8.70
2019-02-28T03:34:54.776Z,8.70
2019-02-28T03:37:14.942Z,8.70
2019-02-28T03:39:45.373Z,8.70
2019-02-28T03:42:17.139Z,8.70
2019-02-28T03:44:47.570Z,8.70
2019-02-28T03:47:22.689Z,8.70
2019-02-28T03:49:50.363Z,8.70
2019-02-28T03:52:20.978Z,8.70
2019-02-28T03:54:51.916Z,8.70
2019-02-28T03:57:27.994Z,8.70
2019-02-28T03:59:57.194Z,8.70
2019-02-28T04:02:27.699Z,8.70
2019-02-28T04:05:00.258Z,8.70
2019-02-28T04:07:30.929Z,8.70
2019-02-28T04:10:01.680Z,8.80
2019-02-28T04:12:35.201Z,8.80
2019-02-28T04:15:10.178Z,8.80
2019-02-28T04:17:39.697Z,8.80
2019-02-28T04:20:10.567Z,8.80
2019-02-28T04:22:41.035Z,8.80
2019-02-28T04:25:11.810Z,8.80
2019-02-28T04:27:42.605Z,8.80
2019-02-28T04:30:13.200Z,8.80
2019-02-28T04:32:43.909Z,8.80
2019-02-28T04:35:24.384Z,8.90
2019-02-28T04:37:50.016Z,8.80
2019-02-28T04:40:20.399Z,8.80
2019-02-28T04:42:54.186Z,8.80
2019-02-28T04:45:26.212Z,8.80
2019-02-28T04:47:57.301Z,8.80
2019-02-28T04:50:31.231Z,8.80
2019-02-28T04:53:00.383Z,8.70
2019-02-28T04:55:30.817Z,8.70
2019-02-28T04:58:01.271Z,8.70
2019-02-28T05:00:31.623Z,8.70
2019-02-28T05:03:02.036Z,8.70
2019-02-28T05:05:32.409Z,8.60
2019-02-28T05:08:05.795Z,8.60
2019-02-28T05:10:35.254Z,8.60
2019-02-28T05:13:05.636Z,8.60
2019-02-28T05:15:38.679Z,8.60
2019-02-28T05:18:08.177Z,8.60
2019-02-28T05:20:38.580Z,8.60
2019-02-28T05:23:09.031Z,8.50
2019-02-28T05:25:40.163Z,8.50
2019-02-28T05:28:10.539Z,8.50
2019-02-28T05:30:41.591Z,8.50
2019-02-28T05:33:12.063Z,8.50
2019-02-28T05:35:42.493Z,8.50
2019-02-28T05:38:13.277Z,8.50
2019-02-28T05:40:43.669Z,8.50
2019-02-28T05:43:14.099Z,8.50
2019-02-28T05:45:48.711Z,8.40
2019-02-28T05:48:16.850Z,8.40
2019-02-28T05:50:52.782Z,8.40
2019-02-28T05:53:22.127Z,8.40
2019-02-28T05:55:52.696Z,8.30
2019-02-28T05:58:23.789Z,8.30
2019-02-28T06:00:54.218Z,8.40
2019-02-28T06:03:24.871Z,8.30
2019-02-28T06:05:57.187Z,8.30
2019-02-28T06:08:38.697Z,8.30
2019-02-28T06:11:08.011Z,8.30
2019-02-28T06:13:38.941Z,8.30
2019-02-28T06:16:12.541Z,8.30
2019-02-28T06:19:04.555Z,8.20
2019-02-28T06:21:40.814Z,8.30
2019-02-28T06:24:16.012Z,8.30
2019-02-28T06:26:59.700Z,8.30
2019-02-28T06:29:40.247Z,8.30
2019-02-28T06:32:23.802Z,8.30
2019-02-28T06:34:53.778Z,8.40
2019-02-28T06:37:24.291Z,8.40
2019-02-28T06:39:58.612Z,8.40
2019-02-28T06:42:29.654Z,8.40
2019-02-28T06:45:02.524Z,8.50
2019-02-28T06:47:32.835Z,8.50
2019-02-28T06:50:05.522Z,8.50
2019-02-28T06:52:37.671Z,8.60
2019-02-28T06:55:12.605Z,8.60
2019-02-28T06:57:41.825Z,8.70
2019-02-28T07:00:21.738Z,8.70
2019-02-28T07:03:04.497Z,8.70
2019-02-28T07:05:36.211Z,8.80
2019-02-28T07:08:06.725Z,8.90
2019-02-28T07:10:37.228Z,8.90
2019-02-28T07:13:07.853Z,9.00
2019-02-28T07:15:40.341Z,9.00
2019-02-28T07:18:11.422Z,9.10
2019-02-28T07:20:47.203Z,9.10
2019-02-28T07:23:17.786Z,9.20
2019-02-28T07:25:48.295Z,9.30
2019-02-28T07:28:18.672Z,9.30
2019-02-28T07:30:50.288Z,9.40
2019-02-28T07:33:23.946Z,9.40
2019-02-28T07:35:57.936Z,9.50
2019-02-28T07:38:29.033Z,9.60
2019-02-28T07:41:00.961Z,9.60
2019-02-28T07:43:31.438Z,9.70
2019-02-28T07:46:04.441Z,9.80
2019-02-28T07:48:35.204Z,9.80
2019-02-28T07:51:05.691Z,9.90
2019-02-28T07:53:36.202Z,9.90
2019-02-28T07:56:07.781Z,10.00
2019-02-28T07:58:38.464Z,10.10
2019-02-28T08:01:12.531Z,10.20
2019-02-28T08:03:43.710Z,10.20
2019-02-28T08:06:15.412Z,10.30
2019-02-28T08:08:45.831Z,10.40
2019-02-28T08:11:20.895Z,10.40
2019-02-28T08:13:51.655Z,10.50
2019-02-28T08:16:22.065Z,10.50
2019-02-28T08:18:53.367Z,10.60
2019-02-28T08:21:24.795Z,10.60
2019-02-28T08:23:55.414Z,10.70
2019-02-28T08:26:27.782Z,10.70
2019-02-28T08:28:58.374Z,10.70
2019-02-28T08:31:31.979Z,10.70
2019-02-28T08:34:01.371Z,10.80
2019-02-28T08:36:32.765Z,10.90
2019-02-28T08:39:06.067Z,10.90
2019-02-28T08:41:37.912Z,11.00
2019-02-28T08:44:22.833Z,11.10
2019-02-28T08:46:51.577Z,11.10
2019-02-28T08:49:23.176Z,11.20
2019-02-28T08:52:02.486Z,11.20
2019-02-28T08:54:41.407Z,11.30
2019-02-28T08:57:12.996Z,11.40
2019-02-28T08:59:44.009Z,11.50
2019-02-28T09:02:17.963Z,11.60
2019-02-28T09:04:47.823Z,11.60
2019-02-28T09:07:21.396Z,11.60
2019-02-28T09:09:51.909Z,11.70
2019-02-28T09:12:26.024Z,11.80
2019-02-28T09:14:56.731Z,11.80
2019-02-28T09:17:31.798Z,11.90
2019-02-28T09:20:02.895Z,12.00
2019-02-28T09:22:33.739Z,12.00
2019-02-28T09:25:04.358Z,12.10
2019-02-28T09:27:39.025Z,12.20
2019-02-28T09:30:26.603Z,12.20
2019-02-28T09:32:59.466Z,12.30
2019-02-28T09:35:36.953Z,12.40
2019-02-28T09:38:13.382Z,12.50
2019-02-28T09:40:42.074Z,12.50
2019-02-28T09:43:12.984Z,12.60
2019-02-28T09:45:43.696Z,12.70
2019-02-28T09:48:14.634Z,12.70
2019-02-28T09:50:45.653Z,12.80
2019-02-28T09:53:18.443Z,12.80
2019-02-28T09:55:50.499Z,12.80
2019-02-28T09:58:26.163Z,12.80
2019-02-28T10:00:55.874Z,12.90
2019-02-28T10:03:26.793Z,13.00
2019-02-28T10:05:57.373Z,13.10
2019-02-28T10:08:28.070Z,13.10
2019-02-28T10:10:58.530Z,13.20
2019-02-28T10:13:30.918Z,13.20
2019-02-28T10:16:01.385Z,13.30
2019-02-28T10:18:35.551Z,13.30
2019-02-28T10:21:06.629Z,13.40
2019-02-28T10:23:38.025Z,13.40
2019-02-28T10:26:08.750Z,13.40
2019-02-28T10:28:39.402Z,13.50
2019-02-28T10:31:09.823Z,13.50
2019-02-28T10:33:41.411Z,13.50
2019-02-28T10:36:12.873Z,13.60
2019-02-28T10:38:44.241Z,13.60
2019-02-28T10:41:17.096Z,13.60
2019-02-28T10:43:52.098Z,13.70
2019-02-28T10:46:20.293Z,13.90
2019-02-28T10:48:51.194Z,13.90
2019-02-28T10:51:21.999Z,14.00
2019-02-28T10:53:52.575Z,14.10
2019-02-28T10:56:23.179Z,14.10
2019-02-28T10:58:55.023Z,14.10
2019-02-28T11:03:55.719Z,13.30
2019-02-28T11:06:30.345Z,14.10
2019-02-28T11:09:08.435Z,14.10
2019-02-28T11:11:39.034Z,14.10
2019-02-28T11:14:10.763Z,14.20
2019-02-28T11:16:41.682Z,14.20
2019-02-28T11:19:13.828Z,14.30
2019-02-28T11:21:46.930Z,14.40
2019-02-28T11:24:20.667Z,14.60
2019-02-28T11:26:55.565Z,14.70
2019-02-28T11:29:26.368Z,14.80
2019-02-28T11:31:59.065Z,14.90
2019-02-28T11:34:29.712Z,15.00
2019-02-28T11:37:01.208Z,15.10
2019-02-28T11:39:35.884Z,15.20
2019-02-28T11:42:18.013Z,15.30
2019-02-28T11:44:48.503Z,15.40
2019-02-28T11:47:19.724Z,15.40
2019-02-28T11:49:53.857Z,15.50
2019-02-28T11:52:24.434Z,15.50
2019-02-28T11:54:56.370Z,15.50
2019-02-28T11:57:26.865Z,15.50
2019-02-28T12:00:00.196Z,15.50
2019-02-28T12:02:29.484Z,15.50
2019-02-28T12:05:08.556Z,15.60
2019-02-28T12:07:40.066Z,15.60
2019-02-28T12:10:20.668Z,15.60
2019-02-28T12:12:52.355Z,15.50
2019-02-28T12:15:24.327Z,15.50
2019-02-28T12:17:55.941Z,15.60
2019-02-28T12:20:27.463Z,15.70
2019-02-28T12:23:00.371Z,15.80
2019-02-28T12:25:34.621Z,15.90
2019-02-28T12:28:06.721Z,16.00
2019-02-28T12:30:37.458Z,16.00
2019-02-28T12:33:07.828Z,15.90
2019-02-28T12:35:40.470Z,15.80
2019-02-28T12:38:10.407Z,15.80
2019-02-28T12:40:42.570Z,15.80
2019-02-28T12:43:16.327Z,15.90
2019-02-28T12:45:47.476Z,15.90
2019-02-28T12:48:18.262Z,15.70
2019-02-28T12:50:48.894Z,16.10
2019-02-28T12:55:52.866Z,15.60
2019-02-28T12:58:23.554Z,15.80
2019-02-28T13:00:56.445Z,15.30
2019-02-28T13:03:26.688Z,15.50
2019-02-28T13:05:57.649Z,15.80
2019-02-28T13:11:08.225Z,15.60
2019-02-28T13:16:09.548Z,15.10
2019-02-28T13:18:57.793Z,15.30
2019-02-28T13:21:31.209Z,15.20
2019-02-28T13:24:01.833Z,16.10
2019-02-28T13:26:33.793Z,16.60
2019-02-28T13:29:05.142Z,15.20
2019-02-28T13:31:35.760Z,15.20
2019-02-28T13:34:06.335Z,15.10
2019-02-28T13:36:36.739Z,15.10
2019-02-28T13:39:09.966Z,15.10
2019-02-28T13:41:41.958Z,15.10
2019-02-28T13:44:12.384Z,15.10
2019-02-28T13:46:44.273Z,15.10
2019-02-28T13:49:15.613Z,15.10
2019-02-28T13:51:46.333Z,15.10
2019-02-28T13:54:17.911Z,15.10
2019-02-28T13:56:50.008Z,14.90
2019-02-28T13:59:20.491Z,16.30
2019-02-28T14:01:55.403Z,15.20
2019-02-28T14:04:26.963Z,15.30
2019-02-28T14:06:56.805Z,15.30
2019-02-28T14:09:27.745Z,15.20
2019-02-28T14:12:00.410Z,15.30
2019-02-28T14:14:31.586Z,15.30
2019-02-28T14:17:02.063Z,15.30
2019-02-28T14:19:32.769Z,15.30
2019-02-28T14:22:03.638Z,15.30
2019-02-28T14:24:34.458Z,15.30
2019-02-28T14:27:05.366Z,15.30
2019-02-28T14:29:36.841Z,15.30
2019-02-28T14:32:08.219Z,15.30
2019-02-28T14:34:38.529Z,15.30
2019-02-28T14:37:08.938Z,15.40
2019-02-28T14:39:39.822Z,15.40
2019-02-28T14:42:11.651Z,15.30
2019-02-28T14:44:42.796Z,15.40
2019-02-28T14:47:13.196Z,15.30
2019-02-28T14:49:44.535Z,15.30
2019-02-28T14:52:17.479Z,15.20
2019-02-28T14:54:48.285Z,15.20
2019-02-28T14:57:20.947Z,15.20
2019-02-28T14:59:53.202Z,15.20
2019-02-28T15:02:28.821Z,15.20
2019-02-28T15:04:58.400Z,15.10
2019-02-28T15:07:31.994Z,15.10
2019-02-28T15:10:02.716Z,15.10
2019-02-28T15:12:35.788Z,15.10
2019-02-28T15:15:09.023Z,15.00
2019-02-28T15:17:41.905Z,15.00
2019-02-28T15:20:14.107Z,15.00
2019-02-28T15:22:46.115Z,15.00
2019-02-28T15:25:18.675Z,14.90
2019-02-28T15:27:50.557Z,14.90
2019-02-28T15:30:24.389Z,14.90
2019-02-28T15:33:01.522Z,14.80
2019-02-28T15:35:31.977Z,14.90
2019-02-28T15:38:05.853Z,14.80
2019-02-28T15:40:40.909Z,14.80
2019-02-28T15:43:23.423Z,14.70
2019-02-28T15:46:11.867Z,14.70
2019-02-28T15:48:41.976Z,14.70
2019-02-28T15:51:16.044Z,14.70
2019-02-28T15:53:46.889Z,14.60
2019-02-28T15:56:20.091Z,14.60
2019-02-28T15:58:50.671Z,14.60
2019-02-28T16:01:21.106Z,14.50
2019-02-28T16:03:52.553Z,14.50
2019-02-28T16:06:23.080Z,14.40
2019-02-28T16:08:54.246Z,14.40
2019-02-28T16:11:26.141Z,14.30
2019-02-28T16:13:57.476Z,14.30
2019-02-28T16:16:28.115Z,14.20
2019-02-28T16:18:58.825Z,14.20
2019-02-28T16:21:30.969Z,14.10
2019-02-28T16:24:02.051Z,14.00
2019-02-28T16:26:34.818Z,14.00
2019-02-28T16:29:05.491Z,13.90
2019-02-28T16:31:38.556Z,13.90
2019-02-28T16:34:09.228Z,13.90
2019-02-28T16:36:39.686Z,13.80
2019-02-28T16:39:10.106Z,13.80
2019-02-28T16:41:40.533Z,13.70
2019-02-28T16:44:11.380Z,13.60
2019-02-28T16:46:42.135Z,13.50
2019-02-28T16:49:12.581Z,13.50
2019-02-28T16:51:42.975Z,13.40
2019-02-28T16:54:15.518Z,13.40
2019-02-28T16:56:49.143Z,13.30
2019-02-28T16:59:28.450Z,13.30
2019-02-28T17:02:09.754Z,13.20
2019-02-28T17:04:41.979Z,13.20
2019-02-28T17:07:23.431Z,13.20
2019-02-28T17:09:57.442Z,13.20
2019-02-28T17:12:46.082Z,13.20
2019-02-28T17:15:25.143Z,13.10
2019-02-28T17:18:06.371Z,13.10
2019-02-28T17:20:41.884Z,13.10
2019-02-28T17:23:18.588Z,13.00
2019-02-28T17:25:49.214Z,13.00
2019-02-28T17:28:36.865Z,13.00
2019-02-28T17:31:35.587Z,13.00
2019-02-28T17:34:06.442Z,12.90
2019-02-28T17:36:39.256Z,12.90
2019-02-28T17:39:14.555Z,12.80
2019-02-28T17:41:43.600Z,12.80
2019-02-28T17:45:02.202Z,12.80
2019-02-28T17:48:51.669Z,12.70
2019-02-28T17:51:27.190Z,12.70
2019-02-28T17:54:40.062Z,12.60
2019-02-28T17:57:57.065Z,12.60
2019-02-28T18:01:25.402Z,12.60
2019-02-28T18:04:48.374Z,12.50
2019-02-28T18:08:37.798Z,12.50
2019-02-28T18:12:09.336Z,12.40
2019-02-28T18:14:55.948Z,12.40
2019-02-28T18:18:31.654Z,12.30
2019-02-28T18:22:23.512Z,12.30
2019-02-28T18:25:58.226Z,12.20
2019-02-28T18:29:31.033Z,12.20
2019-02-28T18:31:59.489Z,12.20
2019-02-28T18:34:38.744Z,12.20
2019-02-28T18:37:09.433Z,12.20
2019-02-28T18:39:39.938Z,12.20
2019-02-28T18:42:11.123Z,12.20
2019-02-28T18:44:44.222Z,12.20
2019-02-28T18:47:15.067Z,12.20
2019-02-28T18:49:45.442Z,12.20
2019-02-28T18:52:17.969Z,12.20
2019-02-28T18:54:48.515Z,12.10
2019-02-28T18:57:18.879Z,12.10
2019-02-28T18:59:49.547Z,12.10
2019-02-28T19:02:19.939Z,12.00
2019-02-28T19:04:50.501Z,12.00
2019-02-28T19:08:11.433Z,12.00
2019-02-28T19:11:32.635Z,12.00
2019-02-28T19:14:26.825Z,11.90
2019-02-28T19:17:01.159Z,11.90
2019-02-28T19:20:14.412Z,11.90
2019-02-28T19:23:42.989Z,11.90
2019-02-28T19:27:03.323Z,11.90
2019-02-28T19:30:45.076Z,11.80
2019-02-28T19:33:50.819Z,11.80
2019-02-28T19:36:24.801Z,11.80
2019-02-28T19:38:55.310Z,11.70
2019-02-28T19:41:26.230Z,11.70
2019-02-28T19:43:56.679Z,11.70
2019-02-28T19:46:27.177Z,11.70
2019-02-28T19:48:57.957Z,11.70
2019-02-28T19:51:32.191Z,11.70
2019-02-28T19:54:02.726Z,11.60
2019-02-28T19:56:33.565Z,11.60
2019-02-28T19:59:26.047Z,11.60
2019-02-28T20:02:00.336Z,11.60
2019-02-28T20:04:33.623Z,11.50
2019-02-28T20:07:04.163Z,11.50
2019-02-28T20:09:35.103Z,11.50
2019-02-28T20:12:05.804Z,11.50
2019-02-28T20:14:55.567Z,11.50
2019-02-28T20:17:24.641Z,11.40
2019-02-28T20:19:59.900Z,11.40
2019-02-28T20:22:30.494Z,11.40
2019-02-28T20:25:04.471Z,11.40
2019-02-28T20:27:38.134Z,11.40
2019-02-28T20:30:11.713Z,11.40
2019-02-28T20:32:42.921Z,11.30
2019-02-28T20:35:13.712Z,11.30
2019-02-28T20:37:44.153Z,11.30
2019-02-28T20:40:15.749Z,11.30
2019-02-28T20:42:46.126Z,11.30
2019-02-28T20:45:16.637Z,11.30
2019-02-28T20:47:47.395Z,11.30
2019-02-28T20:50:23.431Z,11.20
2019-02-28T20:52:56.160Z,11.20
2019-02-28T20:55:26.293Z,11.20
2019-02-28T20:57:57.090Z,11.20
2019-02-28T21:00:28.037Z,11.10
2019-02-28T21:02:59.152Z,11.10
2019-02-28T21:05:29.633Z,11.00
2019-02-28T21:08:00.413Z,11.00
2019-02-28T21:10:31.319Z,11.10
2019-02-28T21:13:04.143Z,11.10
2019-02-28T21:15:34.527Z,11.10
2019-02-28T21:18:05.102Z,11.20
2019-02-28T21:20:35.831Z,11.20
2019-02-28T21:23:08.455Z,11.30
2019-02-28T21:25:39.402Z,11.30
2019-02-28T21:28:10.267Z,11.30
2019-02-28T21:30:40.854Z,11.30
2019-02-28T21:33:11.234Z,11.30
2019-02-28T21:35:42.511Z,11.40
2019-02-28T21:38:12.923Z,11.40
2019-02-28T21:40:43.426Z,11.40
2019-02-28T21:43:13.863Z,11.40
2019-02-28T21:45:46.781Z,11.40
2019-02-28T21:48:17.470Z,11.50
2019-02-28T21:50:48.140Z,11.50
2019-02-28T21:53:18.734Z,11.50
2019-02-28T21:55:58.152Z,11.60
2019-02-28T21:58:28.680Z,11.60
2019-02-28T22:00:59.215Z,11.80
2019-02-28T22:03:30.010Z,11.80
2019-02-28T22:06:00.418Z,11.70
2019-02-28T22:08:30.834Z,11.70
2019-02-28T22:11:01.188Z,11.70
2019-02-28T22:13:31.930Z,11.60
2019-02-28T22:16:02.573Z,11.60
2019-02-28T22:18:32.989Z,11.50
2019-02-28T22:21:03.373Z,11.50
2019-02-28T22:23:34.073Z,11.50
2019-02-28T22:26:05.767Z,11.40
2019-02-28T22:28:36.508Z,11.40
2019-02-28T22:31:29.271Z,11.40
2019-02-28T22:34:04.711Z,11.40
2019-02-28T22:36:38.771Z,11.40
2019-02-28T22:39:10.088Z,11.40
2019-02-28T22:41:40.608Z,11.40
2019-02-28T22:44:10.953Z,11.40
2019-02-28T22:46:41.346Z,11.40
2019-02-28T22:49:12.055Z,11.40
2019-02-28T22:51:42.415Z,11.50
2019-02-28T22:54:12.956Z,11.50
2019-02-28T22:56:43.347Z,11.50
2019-02-28T22:59:13.729Z,11.50
2019-02-28T23:01:45.221Z,11.50
2019-02-28T23:04:15.900Z,11.50
2019-02-28T23:06:46.409Z,11.50
2019-02-28T23:09:16.842Z,11.50
2019-02-28T23:11:47.653Z,11.50
2019-02-28T23:14:18.094Z,11.50
2019-02-28T23:16:48.505Z,11.60
2019-02-28T23:19:19.233Z,11.50
2019-02-28T23:21:49.634Z,11.50
2019-02-28T23:24:20.333Z,11.50
2019-02-28T23:27:22.263Z,11.50
2019-02-28T23:30:21.241Z,11.50
2019-02-28T23:33:00.159Z,11.50
2019-02-28T23:35:40.921Z,11.50
2019-02-28T23:38:11.788Z,11.50
2019-02-28T23:40:42.789Z,11.50
2019-02-28T23:43:15.286Z,11.40
2019-02-28T23:45:48.813Z,11.40
2019-02-28T23:48:19.160Z,11.40
2019-02-28T23:50:49.899Z,11.40
2019-02-28T23:53:22.290Z,11.40
2019-02-28T23:55:52.324Z,11.40
2019-02-28T23:58:26.023Z,11.40
